sensor_id;sensor_type;location;lat;lon;timestamp;temperature;humidity
9772;DHT22;4925;52.588;13.370;2023-03-16T00:01:09;1.80;99.90
9772;DHT22;4925;52.588;13.370;2023-03-16T00:03:36;1.80;99.90
9772;DHT22;4925;52.588;13.370;2023-03-16T00:06:05;1.80;99.90
9772;DHT22;4925;52.588;13.370;2023-03-16T00:08:31;1.90;99.90
9772;DHT22;4925;52.588;13.370;2023-03-16T00:10:57;1.90;99.90
9772;DHT22;4925;52.588;13.370;2023-03-16T00:13:23;1.90;99.90
9772;DHT22;4925;52.588;13.370;2023-03-16T00:15:57;1.90;99.90
9772;DHT22;4925;52.588;13.370;2023-03-16T00:18:26;1.80;99.90
9772;DHT22;4925;52.588;13.370;2023-03-16T00:20:57;1.70;99.90
9772;DHT22;4925;52.588;13.370;2023-03-16T00:23:25;1.80;99.90
9772;DHT22;4925;52.588;13.370;2023-03-16T00:25:55;1.70;99.90
9772;DHT22;4925;52.588;13.370;2023-03-16T00:28:21;1.70;99.90
9772;DHT22;4925;52.588;13.370;2023-03-16T00:30:47;1.60;99.90
9772;DHT22;4925;52.588;13.370;2023-03-16T00:33:13;1.50;99.90
9772;DHT22;4925;52.588;13.370;2023-03-16T00:35:39;1.50;99.90
9772;DHT22;4925;52.588;13.370;2023-03-16T00:38:04;1.40;99.90
9772;DHT22;4925;52.588;13.370;2023-03-16T00:40:30;1.40;99.90
9772;DHT22;4925;52.588;13.370;2023-03-16T00:42:58;1.40;99.90
9772;DHT22;4925;52.588;13.370;2023-03-16T00:45:24;1.50;99.90
9772;DHT22;4925;52.588;13.370;2023-03-16T00:47:49;1.30;99.90
9772;DHT22;4925;52.588;13.370;2023-03-16T00:50:18;1.30;99.90
9772;DHT22;4925;52.588;13.370;2023-03-16T00:52:46;1.30;99.90
9772;DHT22;4925;52.588;13.370;2023-03-16T00:55:12;1.40;99.90
9772;DHT22;4925;52.588;13.370;2023-03-16T00:57:38;1.50;99.90
9772;DHT22;4925;52.588;13.370;2023-03-16T01:00:04;1.50;99.90
9772;DHT22;4925;52.588;13.370;2023-03-16T01:02:42;1.50;99.90
9772;DHT22;4925;52.588;13.370;2023-03-16T01:05:11;1.50;99.90
9772;DHT22;4925;52.588;13.370;2023-03-16T01:07:40;1.50;99.90
9772;DHT22;4925;52.588;13.370;2023-03-16T01:10:07;1.50;99.90
9772;DHT22;4925;52.588;13.370;2023-03-16T01:12:33;1.60;99.90
9772;DHT22;4925;52.588;13.370;2023-03-16T01:14:59;1.60;99.90
9772;DHT22;4925;52.588;13.370;2023-03-16T01:17:25;1.60;99.90
9772;DHT22;4925;52.588;13.370;2023-03-16T01:19:51;1.60;99.90
9772;DHT22;4925;52.588;13.370;2023-03-16T01:22:17;1.70;99.90
9772;DHT22;4925;52.588;13.370;2023-03-16T01:24:44;1.70;99.90
9772;DHT22;4925;52.588;13.370;2023-03-16T01:27:10;1.60;99.90
9772;DHT22;4925;52.588;13.370;2023-03-16T01:29:38;1.60;99.90
9772;DHT22;4925;52.588;13.370;2023-03-16T01:32:05;1.60;99.90
9772;DHT22;4925;52.588;13.370;2023-03-16T01:34:32;1.70;99.90
9772;DHT22;4925;52.588;13.370;2023-03-16T01:36:57;1.60;99.90
9772;DHT22;4925;52.588;13.370;2023-03-16T01:39:23;1.50;99.90
9772;DHT22;4925;52.588;13.370;2023-03-16T01:41:49;1.50;99.90
9772;DHT22;4925;52.588;13.370;2023-03-16T01:44:21;1.60;99.90
9772;DHT22;4925;52.588;13.370;2023-03-16T01:46:49;1.60;99.90
9772;DHT22;4925;52.588;13.370;2023-03-16T01:49:28;1.50;99.90
9772;DHT22;4925;52.588;13.370;2023-03-16T01:52:31;1.60;99.90
9772;DHT22;4925;52.588;13.370;2023-03-16T01:55:05;1.50;99.90
9772;DHT22;4925;52.588;13.370;2023-03-16T01:57:39;1.50;99.90
9772;DHT22;4925;52.588;13.370;2023-03-16T02:00:17;1.60;99.90
9772;DHT22;4925;52.588;13.370;2023-03-16T02:02:48;1.60;99.90
9772;DHT22;4925;52.588;13.370;2023-03-16T02:07:54;1.60;99.90
9772;DHT22;4925;52.588;13.370;2023-03-16T02:10:25;1.70;99.90
9772;DHT22;4925;52.588;13.370;2023-03-16T02:12:52;1.70;90.10
9772;DHT22;4925;52.588;13.370;2023-03-16T02:15:18;1.80;85.40
9772;DHT22;4925;52.588;13.370;2023-03-16T02:17:46;1.70;64.80
9772;DHT22;4925;52.588;13.370;2023-03-16T02:20:35;1.70;52.30
9772;DHT22;4925;52.588;13.370;2023-03-16T02:23:07;1.60;58.00
9772;DHT22;4925;52.588;13.370;2023-03-16T02:26:01;1.70;59.50
9772;DHT22;4925;52.588;13.370;2023-03-16T02:30:59;1.70;58.10
9772;DHT22;4925;52.588;13.370;2023-03-16T02:33:27;1.70;52.70
9772;DHT22;4925;52.588;13.370;2023-03-16T02:35:53;1.60;38.50
9772;DHT22;4925;52.588;13.370;2023-03-16T02:38:19;1.60;44.10
9772;DHT22;4925;52.588;13.370;2023-03-16T02:46:18;1.50;48.30
9772;DHT22;4925;52.588;13.370;2023-03-16T02:48:55;1.40;45.10
9772;DHT22;4925;52.588;13.370;2023-03-16T02:51:23;1.40;56.30
9772;DHT22;4925;52.588;13.370;2023-03-16T02:53:48;1.40;60.10
9772;DHT22;4925;52.588;13.370;2023-03-16T02:56:14;1.40;58.80
9772;DHT22;4925;52.588;13.370;2023-03-16T02:58:39;1.40;45.90
9772;DHT22;4925;52.588;13.370;2023-03-16T03:01:05;1.40;46.40
9772;DHT22;4925;52.588;13.370;2023-03-16T03:03:31;1.30;45.40
9772;DHT22;4925;52.588;13.370;2023-03-16T03:05:59;1.30;44.10
9772;DHT22;4925;52.588;13.370;2023-03-16T03:08:26;1.20;50.90
9772;DHT22;4925;52.588;13.370;2023-03-16T03:10:51;1.20;69.20
9772;DHT22;4925;52.588;13.370;2023-03-16T03:13:17;1.20;72.10
9772;DHT22;4925;52.588;13.370;2023-03-16T03:15:43;1.20;56.00
9772;DHT22;4925;52.588;13.370;2023-03-16T03:18:09;1.30;49.50
9772;DHT22;4925;52.588;13.370;2023-03-16T03:20:35;1.40;47.70
9772;DHT22;4925;52.588;13.370;2023-03-16T03:23:01;1.30;37.30
9772;DHT22;4925;52.588;13.370;2023-03-16T03:25:28;1.30;43.70
9772;DHT22;4925;52.588;13.370;2023-03-16T03:27:54;1.20;42.00
9772;DHT22;4925;52.588;13.370;2023-03-16T03:30:22;1.30;40.90
9772;DHT22;4925;52.588;13.370;2023-03-16T03:32:49;1.30;42.70
9772;DHT22;4925;52.588;13.370;2023-03-16T03:35:15;1.30;45.50
9772;DHT22;4925;52.588;13.370;2023-03-16T03:37:41;1.20;43.20
9772;DHT22;4925;52.588;13.370;2023-03-16T03:40:10;1.30;40.90
9772;DHT22;4925;52.588;13.370;2023-03-16T03:42:37;1.20;37.70
9772;DHT22;4925;52.588;13.370;2023-03-16T03:45:03;1.20;55.20
9772;DHT22;4925;52.588;13.370;2023-03-16T03:47:29;1.20;49.80
9772;DHT22;4925;52.588;13.370;2023-03-16T03:49:55;1.20;38.50
9772;DHT22;4925;52.588;13.370;2023-03-16T03:52:20;1.20;39.80
9772;DHT22;4925;52.588;13.370;2023-03-16T03:54:46;1.40;54.30
9772;DHT22;4925;52.588;13.370;2023-03-16T03:57:12;1.20;37.10
9772;DHT22;4925;52.588;13.370;2023-03-16T03:59:37;1.20;38.60
9772;DHT22;4925;52.588;13.370;2023-03-16T04:02:09;1.20;36.50
9772;DHT22;4925;52.588;13.370;2023-03-16T04:04:36;1.10;43.80
9772;DHT22;4925;52.588;13.370;2023-03-16T04:07:02;1.10;39.00
9772;DHT22;4925;52.588;13.370;2023-03-16T04:09:28;1.10;45.30
9772;DHT22;4925;52.588;13.370;2023-03-16T04:11:54;1.00;48.50
9772;DHT22;4925;52.588;13.370;2023-03-16T04:14:22;0.90;48.90
9772;DHT22;4925;52.588;13.370;2023-03-16T04:16:48;1.00;47.00
9772;DHT22;4925;52.588;13.370;2023-03-16T04:19:13;1.10;44.80
9772;DHT22;4925;52.588;13.370;2023-03-16T04:21:39;1.20;58.60
9772;DHT22;4925;52.588;13.370;2023-03-16T04:24:05;1.30;34.00
9772;DHT22;4925;52.588;13.370;2023-03-16T04:26:31;1.30;22.60
9772;DHT22;4925;52.588;13.370;2023-03-16T04:28:57;1.20;17.60
9772;DHT22;4925;52.588;13.370;2023-03-16T04:31:23;1.30;13.60
9772;DHT22;4925;52.588;13.370;2023-03-16T04:33:49;1.20;9.20
9772;DHT22;4925;52.588;13.370;2023-03-16T04:36:15;1.10;11.90
9772;DHT22;4925;52.588;13.370;2023-03-16T04:38:41;1.10;16.50
9772;DHT22;4925;52.588;13.370;2023-03-16T04:41:06;1.10;16.50
9772;DHT22;4925;52.588;13.370;2023-03-16T04:43:32;1.00;19.90
9772;DHT22;4925;52.588;13.370;2023-03-16T04:46:02;1.00;24.10
9772;DHT22;4925;52.588;13.370;2023-03-16T04:48:29;1.00;25.90
9772;DHT22;4925;52.588;13.370;2023-03-16T04:50:56;0.90;30.20
9772;DHT22;4925;52.588;13.370;2023-03-16T04:53:22;0.90;29.10
9772;DHT22;4925;52.588;13.370;2023-03-16T04:55:48;0.90;35.90
9772;DHT22;4925;52.588;13.370;2023-03-16T04:58:14;1.00;39.70
9772;DHT22;4925;52.588;13.370;2023-03-16T05:00:40;0.90;26.20
9772;DHT22;4925;52.588;13.370;2023-03-16T05:03:06;0.90;25.30
9772;DHT22;4925;52.588;13.370;2023-03-16T05:05:37;1.00;31.50
9772;DHT22;4925;52.588;13.370;2023-03-16T05:08:04;0.90;32.60
9772;DHT22;4925;52.588;13.370;2023-03-16T05:10:31;0.90;30.60
9772;DHT22;4925;52.588;13.370;2023-03-16T05:12:58;0.90;33.90
9772;DHT22;4925;52.588;13.370;2023-03-16T05:15:24;1.00;31.80
9772;DHT22;4925;52.588;13.370;2023-03-16T05:17:50;1.10;27.40
9772;DHT22;4925;52.588;13.370;2023-03-16T05:20:16;1.10;14.50
9772;DHT22;4925;52.588;13.370;2023-03-16T05:22:44;1.20;7.00
9772;DHT22;4925;52.588;13.370;2023-03-16T05:25:11;1.20;1.00
9772;DHT22;4925;52.588;13.370;2023-03-16T05:27:44;1.30;1.00
9772;DHT22;4925;52.588;13.370;2023-03-16T05:30:11;1.10;1.00
9772;DHT22;4925;52.588;13.370;2023-03-16T05:32:37;1.20;1.00
9772;DHT22;4925;52.588;13.370;2023-03-16T05:35:04;1.30;1.00
9772;DHT22;4925;52.588;13.370;2023-03-16T05:37:32;1.40;1.00
9772;DHT22;4925;52.588;13.370;2023-03-16T05:39:58;1.40;1.00
9772;DHT22;4925;52.588;13.370;2023-03-16T05:42:24;1.50;1.00
9772;DHT22;4925;52.588;13.370;2023-03-16T05:44:52;1.50;1.00
9772;DHT22;4925;52.588;13.370;2023-03-16T05:47:19;1.40;1.00
9772;DHT22;4925;52.588;13.370;2023-03-16T05:49:45;1.20;1.00
9772;DHT22;4925;52.588;13.370;2023-03-16T05:52:10;1.20;1.00
9772;DHT22;4925;52.588;13.370;2023-03-16T05:54:36;1.10;1.00
9772;DHT22;4925;52.588;13.370;2023-03-16T05:57:02;1.00;1.00
9772;DHT22;4925;52.588;13.370;2023-03-16T05:59:29;1.00;1.00
9772;DHT22;4925;52.588;13.370;2023-03-16T06:01:55;1.00;1.00
9772;DHT22;4925;52.588;13.370;2023-03-16T06:04:21;0.90;1.00
9772;DHT22;4925;52.588;13.370;2023-03-16T06:06:46;0.90;4.70
9772;DHT22;4925;52.588;13.370;2023-03-16T06:09:12;0.90;1.00
9772;DHT22;4925;52.588;13.370;2023-03-16T06:11:37;1.00;1.00
9772;DHT22;4925;52.588;13.370;2023-03-16T06:14:03;1.00;1.00
9772;DHT22;4925;52.588;13.370;2023-03-16T06:16:29;1.10;1.00
9772;DHT22;4925;52.588;13.370;2023-03-16T06:18:55;1.20;1.00
9772;DHT22;4925;52.588;13.370;2023-03-16T06:21:21;1.50;1.00
9772;DHT22;4925;52.588;13.370;2023-03-16T06:23:47;1.40;1.00
9772;DHT22;4925;52.588;13.370;2023-03-16T06:26:13;1.50;1.00
9772;DHT22;4925;52.588;13.370;2023-03-16T06:28:39;1.60;1.00
9772;DHT22;4925;52.588;13.370;2023-03-16T06:31:05;1.60;1.00
9772;DHT22;4925;52.588;13.370;2023-03-16T06:33:31;1.70;1.00
9772;DHT22;4925;52.588;13.370;2023-03-16T06:35:57;1.80;1.00
9772;DHT22;4925;52.588;13.370;2023-03-16T06:38:23;1.80;1.00
9772;DHT22;4925;52.588;13.370;2023-03-16T06:40:53;1.80;1.00
9772;DHT22;4925;52.588;13.370;2023-03-16T06:43:19;1.90;1.00
9772;DHT22;4925;52.588;13.370;2023-03-16T06:45:45;2.00;1.00
9772;DHT22;4925;52.588;13.370;2023-03-16T06:48:11;2.00;1.00
9772;DHT22;4925;52.588;13.370;2023-03-16T06:50:36;2.10;1.00
9772;DHT22;4925;52.588;13.370;2023-03-16T06:53:02;2.20;1.00
9772;DHT22;4925;52.588;13.370;2023-03-16T06:55:28;2.30;1.00
9772;DHT22;4925;52.588;13.370;2023-03-16T06:57:53;2.40;1.00
9772;DHT22;4925;52.588;13.370;2023-03-16T07:00:20;2.40;1.00
9772;DHT22;4925;52.588;13.370;2023-03-16T07:02:46;2.60;1.00
9772;DHT22;4925;52.588;13.370;2023-03-16T07:05:11;2.70;99.90
9772;DHT22;4925;52.588;13.370;2023-03-16T07:07:43;2.70;99.90
9772;DHT22;4925;52.588;13.370;2023-03-16T07:10:11;2.80;99.90
9772;DHT22;4925;52.588;13.370;2023-03-16T07:12:37;2.80;97.40
9772;DHT22;4925;52.588;13.370;2023-03-16T07:15:03;2.90;99.90
9772;DHT22;4925;52.588;13.370;2023-03-16T07:17:29;3.00;29.40
9772;DHT22;4925;52.588;13.370;2023-03-16T07:19:56;3.00;1.00
9772;DHT22;4925;52.588;13.370;2023-03-16T07:22:22;3.10;99.90
9772;DHT22;4925;52.588;13.370;2023-03-16T07:24:48;3.20;1.00
9772;DHT22;4925;52.588;13.370;2023-03-16T07:27:20;3.20;99.90
9772;DHT22;4925;52.588;13.370;2023-03-16T07:29:48;3.30;99.90
9772;DHT22;4925;52.588;13.370;2023-03-16T07:32:13;3.50;1.00
9772;DHT22;4925;52.588;13.370;2023-03-16T07:34:39;3.50;1.00
9772;DHT22;4925;52.588;13.370;2023-03-16T07:37:06;3.70;47.60
9772;DHT22;4925;52.588;13.370;2023-03-16T07:39:34;3.60;1.00
9772;DHT22;4925;52.588;13.370;2023-03-16T07:41:59;3.70;1.00
9772;DHT22;4925;52.588;13.370;2023-03-16T07:44:26;4.00;66.00
9772;DHT22;4925;52.588;13.370;2023-03-16T07:46:52;3.90;87.50
9772;DHT22;4925;52.588;13.370;2023-03-16T07:49:17;4.00;99.90
9772;DHT22;4925;52.588;13.370;2023-03-16T07:51:43;4.20;99.90
9772;DHT22;4925;52.588;13.370;2023-03-16T07:54:09;4.30;99.90
9772;DHT22;4925;52.588;13.370;2023-03-16T07:56:35;4.30;1.00
9772;DHT22;4925;52.588;13.370;2023-03-16T07:59:02;4.50;99.90
9772;DHT22;4925;52.588;13.370;2023-03-16T08:01:28;4.60;99.90
9772;DHT22;4925;52.588;13.370;2023-03-16T08:03:54;4.70;99.90
9772;DHT22;4925;52.588;13.370;2023-03-16T08:06:20;4.70;1.00
9772;DHT22;4925;52.588;13.370;2023-03-16T08:08:46;4.80;1.00
9772;DHT22;4925;52.588;13.370;2023-03-16T08:11:12;4.90;1.00
9772;DHT22;4925;52.588;13.370;2023-03-16T08:13:38;5.00;1.00
9772;DHT22;4925;52.588;13.370;2023-03-16T08:16:04;5.00;1.00
9772;DHT22;4925;52.588;13.370;2023-03-16T08:18:34;5.40;1.00
9772;DHT22;4925;52.588;13.370;2023-03-16T08:21:01;5.50;99.90
9772;DHT22;4925;52.588;13.370;2023-03-16T08:23:27;5.50;1.00
9772;DHT22;4925;52.588;13.370;2023-03-16T08:25:55;5.40;1.00
9772;DHT22;4925;52.588;13.370;2023-03-16T08:28:21;5.40;1.00
9772;DHT22;4925;52.588;13.370;2023-03-16T08:30:48;5.50;99.90
9772;DHT22;4925;52.588;13.370;2023-03-16T08:33:14;5.50;99.90
9772;DHT22;4925;52.588;13.370;2023-03-16T08:35:43;5.60;99.90
9772;DHT22;4925;52.588;13.370;2023-03-16T08:38:10;5.60;99.90
9772;DHT22;4925;52.588;13.370;2023-03-16T08:40:36;5.70;99.90
9772;DHT22;4925;52.588;13.370;2023-03-16T08:43:02;5.80;1.00
9772;DHT22;4925;52.588;13.370;2023-03-16T08:45:28;5.90;1.00
9772;DHT22;4925;52.588;13.370;2023-03-16T08:47:54;6.00;1.00
9772;DHT22;4925;52.588;13.370;2023-03-16T08:50:19;6.10;1.00
9772;DHT22;4925;52.588;13.370;2023-03-16T08:52:46;6.10;1.00
9772;DHT22;4925;52.588;13.370;2023-03-16T08:55:13;6.20;1.00
9772;DHT22;4925;52.588;13.370;2023-03-16T08:57:40;6.30;1.00
9772;DHT22;4925;52.588;13.370;2023-03-16T09:00:07;6.50;99.90
9772;DHT22;4925;52.588;13.370;2023-03-16T09:02:42;6.60;99.90
9772;DHT22;4925;52.588;13.370;2023-03-16T09:05:10;6.70;99.90
9772;DHT22;4925;52.588;13.370;2023-03-16T09:07:36;6.70;99.90
9772;DHT22;4925;52.588;13.370;2023-03-16T09:10:04;6.80;99.90
9772;DHT22;4925;52.588;13.370;2023-03-16T09:12:33;6.90;99.90
9772;DHT22;4925;52.588;13.370;2023-03-16T09:14:59;6.90;99.90
9772;DHT22;4925;52.588;13.370;2023-03-16T09:17:25;7.10;99.90
9772;DHT22;4925;52.588;13.370;2023-03-16T09:19:51;7.30;96.00
9772;DHT22;4925;52.588;13.370;2023-03-16T09:22:18;7.30;99.90
9772;DHT22;4925;52.588;13.370;2023-03-16T09:24:44;7.30;99.90
9772;DHT22;4925;52.588;13.370;2023-03-16T09:27:09;7.40;92.40
9772;DHT22;4925;52.588;13.370;2023-03-16T09:29:35;7.60;99.90
9772;DHT22;4925;52.588;13.370;2023-03-16T09:32:01;7.50;99.90
9772;DHT22;4925;52.588;13.370;2023-03-16T09:34:28;7.60;99.90
9772;DHT22;4925;52.588;13.370;2023-03-16T09:36:54;7.80;99.90
9772;DHT22;4925;52.588;13.370;2023-03-16T09:39:20;7.90;99.90
9772;DHT22;4925;52.588;13.370;2023-03-16T09:42:01;7.90;99.90
9772;DHT22;4925;52.588;13.370;2023-03-16T09:44:38;7.60;99.90
9772;DHT22;4925;52.588;13.370;2023-03-16T09:47:10;7.50;1.00
9772;DHT22;4925;52.588;13.370;2023-03-16T09:49:47;7.60;1.00
9772;DHT22;4925;52.588;13.370;2023-03-16T09:52:24;7.70;99.90
9772;DHT22;4925;52.588;13.370;2023-03-16T09:57:49;7.70;1.00
9772;DHT22;4925;52.588;13.370;2023-03-16T10:00:26;7.70;1.00
9772;DHT22;4925;52.588;13.370;2023-03-16T10:02:57;7.80;1.00
9772;DHT22;4925;52.588;13.370;2023-03-16T10:05:26;7.80;1.00
9772;DHT22;4925;52.588;13.370;2023-03-16T10:08:02;7.90;1.00
9772;DHT22;4925;52.588;13.370;2023-03-16T10:16:00;8.30;99.90
9772;DHT22;4925;52.588;13.370;2023-03-16T10:18:31;8.50;1.00
9772;DHT22;4925;52.588;13.370;2023-03-16T10:21:01;8.40;1.00
9772;DHT22;4925;52.588;13.370;2023-03-16T10:23:29;8.50;1.00
9772;DHT22;4925;52.588;13.370;2023-03-16T10:25:57;8.60;99.90
9772;DHT22;4925;52.588;13.370;2023-03-16T10:28:24;8.80;99.90
9772;DHT22;4925;52.588;13.370;2023-03-16T10:30:55;8.90;99.90
9772;DHT22;4925;52.588;13.370;2023-03-16T10:33:26;8.90;1.00
9772;DHT22;4925;52.588;13.370;2023-03-16T10:36:03;8.80;99.90
9772;DHT22;4925;52.588;13.370;2023-03-16T10:38:41;8.90;1.00
9772;DHT22;4925;52.588;13.370;2023-03-16T10:43:59;9.00;1.00
9772;DHT22;4925;52.588;13.370;2023-03-16T10:46:44;9.40;1.00
9772;DHT22;4925;52.588;13.370;2023-03-16T10:54:38;9.60;23.70
9772;DHT22;4925;52.588;13.370;2023-03-16T10:57:23;10.00;1.00
9772;DHT22;4925;52.588;13.370;2023-03-16T10:59:54;10.10;99.90
9772;DHT22;4925;52.588;13.370;2023-03-16T11:02:29;10.20;97.90
9772;DHT22;4925;52.588;13.370;2023-03-16T11:04:55;10.30;1.00
9772;DHT22;4925;52.588;13.370;2023-03-16T11:07:22;10.50;1.00
9772;DHT22;4925;52.588;13.370;2023-03-16T11:09:54;10.20;1.00
9772;DHT22;4925;52.588;13.370;2023-03-16T11:12:30;10.30;1.00
9772;DHT22;4925;52.588;13.370;2023-03-16T11:15:11;10.50;1.00
9772;DHT22;4925;52.588;13.370;2023-03-16T11:17:42;10.60;1.00
9772;DHT22;4925;52.588;13.370;2023-03-16T11:20:14;10.80;1.00
9772;DHT22;4925;52.588;13.370;2023-03-16T11:22:43;11.20;1.00
9772;DHT22;4925;52.588;13.370;2023-03-16T11:28:05;11.40;1.00
9772;DHT22;4925;52.588;13.370;2023-03-16T11:31:02;11.00;99.90
9772;DHT22;4925;52.588;13.370;2023-03-16T11:33:29;10.80;47.10
9772;DHT22;4925;52.588;13.370;2023-03-16T11:36:19;11.10;1.00
9772;DHT22;4925;52.588;13.370;2023-03-16T11:42:01;11.10;99.90
9772;DHT22;4925;52.588;13.370;2023-03-16T11:44:36;11.20;1.00
9772;DHT22;4925;52.588;13.370;2023-03-16T11:50:21;10.90;99.90
9772;DHT22;4925;52.588;13.370;2023-03-16T11:53:18;11.10;1.00
9772;DHT22;4925;52.588;13.370;2023-03-16T12:01:17;11.30;99.90
9772;DHT22;4925;52.588;13.370;2023-03-16T12:12:55;11.70;99.90
9772;DHT22;4925;52.588;13.370;2023-03-16T12:17:55;11.90;1.00
9772;DHT22;4925;52.588;13.370;2023-03-16T12:20:42;12.20;1.00
9772;DHT22;4925;52.588;13.370;2023-03-16T12:23:23;12.20;1.00
9772;DHT22;4925;52.588;13.370;2023-03-16T12:25:52;11.80;1.00
9772;DHT22;4925;52.588;13.370;2023-03-16T12:28:23;12.30;1.00
9772;DHT22;4925;52.588;13.370;2023-03-16T12:31:03;12.30;1.00
9772;DHT22;4925;52.588;13.370;2023-03-16T12:38:55;13.00;1.00
9772;DHT22;4925;52.588;13.370;2023-03-16T12:44:42;12.70;1.00
9772;DHT22;4925;52.588;13.370;2023-03-16T12:47:22;13.00;1.00
9772;DHT22;4925;52.588;13.370;2023-03-16T12:49:51;13.30;1.00
9772;DHT22;4925;52.588;13.370;2023-03-16T12:52:17;13.20;1.00
9772;DHT22;4925;52.588;13.370;2023-03-16T12:54:50;13.70;1.00
9772;DHT22;4925;52.588;13.370;2023-03-16T12:57:17;13.50;1.00
9772;DHT22;4925;52.588;13.370;2023-03-16T12:59:45;13.60;1.00
9772;DHT22;4925;52.588;13.370;2023-03-16T13:02:33;13.70;1.00
9772;DHT22;4925;52.588;13.370;2023-03-16T13:05:29;13.30;1.00
9772;DHT22;4925;52.588;13.370;2023-03-16T13:08:15;13.20;1.00
9772;DHT22;4925;52.588;13.370;2023-03-16T13:10:43;13.10;1.00
9772;DHT22;4925;52.588;13.370;2023-03-16T13:13:24;13.40;1.00
9772;DHT22;4925;52.588;13.370;2023-03-16T13:16:07;13.50;4.90
9772;DHT22;4925;52.588;13.370;2023-03-16T13:18:39;13.60;7.10
9772;DHT22;4925;52.588;13.370;2023-03-16T13:21:35;13.80;5.90
9772;DHT22;4925;52.588;13.370;2023-03-16T13:24:43;13.90;6.10
9772;DHT22;4925;52.588;13.370;2023-03-16T13:27:18;13.20;5.50
9772;DHT22;4925;52.588;13.370;2023-03-16T13:29:53;13.40;5.10
9772;DHT22;4925;52.588;13.370;2023-03-16T13:32:20;13.90;4.50
9772;DHT22;4925;52.588;13.370;2023-03-16T13:34:52;13.30;2.60
9772;DHT22;4925;52.588;13.370;2023-03-16T13:37:19;13.30;2.60
9772;DHT22;4925;52.588;13.370;2023-03-16T13:39:57;13.50;14.80
9772;DHT22;4925;52.588;13.370;2023-03-16T13:42:25;13.20;19.00
9772;DHT22;4925;52.588;13.370;2023-03-16T13:44:57;13.50;24.30
9772;DHT22;4925;52.588;13.370;2023-03-16T13:47:26;13.80;25.50
9772;DHT22;4925;52.588;13.370;2023-03-16T13:49:55;13.80;26.20
9772;DHT22;4925;52.588;13.370;2023-03-16T13:52:31;13.70;25.30
9772;DHT22;4925;52.588;13.370;2023-03-16T13:54:59;13.90;25.00
9772;DHT22;4925;52.588;13.370;2023-03-16T13:57:28;14.10;23.70
9772;DHT22;4925;52.588;13.370;2023-03-16T14:00:27;13.70;18.10
9772;DHT22;4925;52.588;13.370;2023-03-16T14:02:58;13.70;19.60
9772;DHT22;4925;52.588;13.370;2023-03-16T14:05:26;14.00;20.80
9772;DHT22;4925;52.588;13.370;2023-03-16T14:07:54;13.90;21.50
9772;DHT22;4925;52.588;13.370;2023-03-16T14:10:21;13.90;22.30
9772;DHT22;4925;52.588;13.370;2023-03-16T14:12:56;13.70;23.20
9772;DHT22;4925;52.588;13.370;2023-03-16T14:15:27;13.80;23.80
9772;DHT22;4925;52.588;13.370;2023-03-16T14:18:14;13.90;21.80
9772;DHT22;4925;52.588;13.370;2023-03-16T14:20:43;13.70;21.20
9772;DHT22;4925;52.588;13.370;2023-03-16T14:23:24;13.70;21.70
9772;DHT22;4925;52.588;13.370;2023-03-16T14:25:51;13.50;22.50
9772;DHT22;4925;52.588;13.370;2023-03-16T14:28:20;13.60;23.50
9772;DHT22;4925;52.588;13.370;2023-03-16T14:31:00;13.50;24.20
9772;DHT22;4925;52.588;13.370;2023-03-16T14:33:30;13.70;24.90
9772;DHT22;4925;52.588;13.370;2023-03-16T14:35:58;13.50;25.10
9772;DHT22;4925;52.588;13.370;2023-03-16T14:38:28;13.50;25.30
9772;DHT22;4925;52.588;13.370;2023-03-16T14:40:56;13.10;24.40
9772;DHT22;4925;52.588;13.370;2023-03-16T14:43:46;13.20;24.70
9772;DHT22;4925;52.588;13.370;2023-03-16T14:46:39;13.20;24.00
9772;DHT22;4925;52.588;13.370;2023-03-16T14:49:18;13.60;24.70
9772;DHT22;4925;52.588;13.370;2023-03-16T14:51:45;13.60;23.90
9772;DHT22;4925;52.588;13.370;2023-03-16T14:54:16;13.80;23.90
9772;DHT22;4925;52.588;13.370;2023-03-16T14:56:47;14.10;23.20
9772;DHT22;4925;52.588;13.370;2023-03-16T14:59:13;14.20;22.80
9772;DHT22;4925;52.588;13.370;2023-03-16T15:01:38;14.30;22.00
9772;DHT22;4925;52.588;13.370;2023-03-16T15:04:04;14.20;20.90
9772;DHT22;4925;52.588;13.370;2023-03-16T15:06:32;14.60;21.80
9772;DHT22;4925;52.588;13.370;2023-03-16T15:08:59;14.70;23.30
9772;DHT22;4925;52.588;13.370;2023-03-16T15:11:27;14.50;22.30
9772;DHT22;4925;52.588;13.370;2023-03-16T15:13:53;14.10;22.50
9772;DHT22;4925;52.588;13.370;2023-03-16T15:16:28;13.70;23.00
9772;DHT22;4925;52.588;13.370;2023-03-16T15:18:56;13.80;23.20
9772;DHT22;4925;52.588;13.370;2023-03-16T15:21:22;13.50;22.80
9772;DHT22;4925;52.588;13.370;2023-03-16T15:23:53;13.40;22.60
9772;DHT22;4925;52.588;13.370;2023-03-16T15:26:23;13.40;22.80
9772;DHT22;4925;52.588;13.370;2023-03-16T15:28:54;13.60;23.10
9772;DHT22;4925;52.588;13.370;2023-03-16T15:31:20;13.40;22.50
9772;DHT22;4925;52.588;13.370;2023-03-16T15:33:46;13.70;23.20
9772;DHT22;4925;52.588;13.370;2023-03-16T15:36:14;13.90;22.20
9772;DHT22;4925;52.588;13.370;2023-03-16T15:38:43;13.60;20.00
9772;DHT22;4925;52.588;13.370;2023-03-16T15:41:10;13.60;20.90
9772;DHT22;4925;52.588;13.370;2023-03-16T15:43:36;13.40;20.30
9772;DHT22;4925;52.588;13.370;2023-03-16T15:46:02;13.10;19.10
9772;DHT22;4925;52.588;13.370;2023-03-16T15:48:29;12.90;20.30
9772;DHT22;4925;52.588;13.370;2023-03-16T15:51:01;12.80;20.70
9772;DHT22;4925;52.588;13.370;2023-03-16T15:53:32;12.70;21.40
9772;DHT22;4925;52.588;13.370;2023-03-16T15:56:01;12.80;21.50
9772;DHT22;4925;52.588;13.370;2023-03-16T15:58:29;12.40;20.40
9772;DHT22;4925;52.588;13.370;2023-03-16T16:00:57;12.30;20.90
9772;DHT22;4925;52.588;13.370;2023-03-16T16:03:24;12.10;20.40
9772;DHT22;4925;52.588;13.370;2023-03-16T16:05:52;11.70;20.50
9772;DHT22;4925;52.588;13.370;2023-03-16T16:08:19;11.80;21.70
9772;DHT22;4925;52.588;13.370;2023-03-16T16:10:46;11.60;22.30
9772;DHT22;4925;52.588;13.370;2023-03-16T16:15:46;11.20;22.00
9772;DHT22;4925;52.588;13.370;2023-03-16T16:18:30;10.90;22.60
9772;DHT22;4925;52.588;13.370;2023-03-16T16:21:00;10.60;22.50
9772;DHT22;4925;52.588;13.370;2023-03-16T16:23:27;10.60;22.70
9772;DHT22;4925;52.588;13.370;2023-03-16T16:25:55;10.40;23.20
9772;DHT22;4925;52.588;13.370;2023-03-16T16:28:24;10.40;23.40
9772;DHT22;4925;52.588;13.370;2023-03-16T16:30:55;10.20;23.90
9772;DHT22;4925;52.588;13.370;2023-03-16T16:35:51;10.10;24.20
9772;DHT22;4925;52.588;13.370;2023-03-16T16:38:17;10.00;23.80
9772;DHT22;4925;52.588;13.370;2023-03-16T16:40:43;9.90;24.50
9772;DHT22;4925;52.588;13.370;2023-03-16T16:43:34;9.80;23.80
9772;DHT22;4925;52.588;13.370;2023-03-16T16:46:04;9.50;24.30
9772;DHT22;4925;52.588;13.370;2023-03-16T16:48:41;9.40;24.70
9772;DHT22;4925;52.588;13.370;2023-03-16T16:51:17;9.30;25.00
9772;DHT22;4925;52.588;13.370;2023-03-16T16:53:44;9.30;25.70
9772;DHT22;4925;52.588;13.370;2023-03-16T16:56:15;9.20;25.50
9772;DHT22;4925;52.588;13.370;2023-03-16T16:58:43;9.20;26.00
9772;DHT22;4925;52.588;13.370;2023-03-16T17:01:15;9.20;26.20
9772;DHT22;4925;52.588;13.370;2023-03-16T17:03:44;9.20;26.40
9772;DHT22;4925;52.588;13.370;2023-03-16T17:06:17;9.20;26.70
9772;DHT22;4925;52.588;13.370;2023-03-16T17:08:44;9.20;26.80
9772;DHT22;4925;52.588;13.370;2023-03-16T17:11:29;9.20;26.80
9772;DHT22;4925;52.588;13.370;2023-03-16T17:14:01;9.00;27.00
9772;DHT22;4925;52.588;13.370;2023-03-16T17:16:31;9.00;27.80
9772;DHT22;4925;52.588;13.370;2023-03-16T17:18:58;8.90;27.70
9772;DHT22;4925;52.588;13.370;2023-03-16T17:21:26;9.00;22.20
9772;DHT22;4925;52.588;13.370;2023-03-16T17:23:53;9.00;1.00